sensor_id;sensor_type;location;lat;lon;timestamp;temperature;humidity
29255;DHT22;16277;48.890;2.306;2023-02-27T00:11:42;9.00;68.70
29255;DHT22;16277;48.890;2.306;2023-02-27T00:26:47;9.20;69.30
29255;DHT22;16277;48.890;2.306;2023-02-27T00:41:53;8.90;69.00
29255;DHT22;16277;48.890;2.306;2023-02-27T00:56:58;9.20;69.30
29255;DHT22;16277;48.890;2.306;2023-02-27T01:12:03;8.80;70.20
29255;DHT22;16277;48.890;2.306;2023-02-27T01:27:08;8.70;71.10
29255;DHT22;16277;48.890;2.306;2023-02-27T01:42:19;8.80;72.20
29255;DHT22;16277;48.890;2.306;2023-02-27T01:57:23;8.80;72.10
29255;DHT22;16277;48.890;2.306;2023-02-27T02:12:30;8.30;74.00
29255;DHT22;16277;48.890;2.306;2023-02-27T02:27:49;8.50;73.60
29255;DHT22;16277;48.890;2.306;2023-02-27T02:43:02;8.40;73.90
29255;DHT22;16277;48.890;2.306;2023-02-27T02:58:11;8.00;73.60
29255;DHT22;16277;48.890;2.306;2023-02-27T03:13:23;8.60;72.90
29255;DHT22;16277;48.890;2.306;2023-02-27T03:28:33;8.00;73.60
29255;DHT22;16277;48.890;2.306;2023-02-27T03:43:45;8.10;72.40
29255;DHT22;16277;48.890;2.306;2023-02-27T03:58:52;8.60;71.10
29255;DHT22;16277;48.890;2.306;2023-02-27T04:29:36;8.20;72.80
29255;DHT22;16277;48.890;2.306;2023-02-27T04:44:43;8.40;71.90
29255;DHT22;16277;48.890;2.306;2023-02-27T04:59:52;8.40;72.10
29255;DHT22;16277;48.890;2.306;2023-02-27T05:15:00;8.10;73.40
29255;DHT22;16277;48.890;2.306;2023-02-27T05:30:15;7.80;75.80
29255;DHT22;16277;48.890;2.306;2023-02-27T05:45:23;8.10;76.00
29255;DHT22;16277;48.890;2.306;2023-02-27T06:00:33;7.60;78.00
29255;DHT22;16277;48.890;2.306;2023-02-27T06:15:38;8.00;77.80
29255;DHT22;16277;48.890;2.306;2023-02-27T06:30:43;7.10;80.90
29255;DHT22;16277;48.890;2.306;2023-02-27T06:45:48;7.90;79.50
29255;DHT22;16277;48.890;2.306;2023-02-27T07:00:59;8.10;78.60
29255;DHT22;16277;48.890;2.306;2023-02-27T07:16:04;8.00;78.70
29255;DHT22;16277;48.890;2.306;2023-02-27T07:31:09;7.60;79.60
29255;DHT22;16277;48.890;2.306;2023-02-27T07:46:14;8.00;79.00
29255;DHT22;16277;48.890;2.306;2023-02-27T08:01:18;8.30;76.80
29255;DHT22;16277;48.890;2.306;2023-02-27T08:16:23;8.20;75.80
29255;DHT22;16277;48.890;2.306;2023-02-27T08:31:28;8.50;74.20
29255;DHT22;16277;48.890;2.306;2023-02-27T08:46:32;8.30;74.20
29255;DHT22;16277;48.890;2.306;2023-02-27T09:01:37;8.50;74.10
29255;DHT22;16277;48.890;2.306;2023-02-27T09:16:41;8.70;72.90
29255;DHT22;16277;48.890;2.306;2023-02-27T09:31:46;8.90;71.60
29255;DHT22;16277;48.890;2.306;2023-02-27T09:46:51;8.70;69.70
29255;DHT22;16277;48.890;2.306;2023-02-27T10:02:01;9.40;67.80
29255;DHT22;16277;48.890;2.306;2023-02-27T10:17:17;9.60;67.20
29255;DHT22;16277;48.890;2.306;2023-02-27T10:32:27;10.00;65.20
29255;DHT22;16277;48.890;2.306;2023-02-27T10:47:33;9.60;63.80
29255;DHT22;16277;48.890;2.306;2023-02-27T11:02:38;10.30;62.60
29255;DHT22;16277;48.890;2.306;2023-02-27T11:17:43;11.00;59.40
29255;DHT22;16277;48.890;2.306;2023-02-27T11:32:49;11.50;58.00
29255;DHT22;16277;48.890;2.306;2023-02-27T11:47:58;11.10;56.10
29255;DHT22;16277;48.890;2.306;2023-02-27T12:03:09;11.20;55.40
29255;DHT22;16277;48.890;2.306;2023-02-27T12:18:20;11.50;53.90
29255;DHT22;16277;48.890;2.306;2023-02-27T12:33:35;12.00;54.50
29255;DHT22;16277;48.890;2.306;2023-02-27T12:48:45;11.50;54.50
29255;DHT22;16277;48.890;2.306;2023-02-27T13:03:57;12.50;52.60
29255;DHT22;16277;48.890;2.306;2023-02-27T13:19:10;12.60;49.80
29255;DHT22;16277;48.890;2.306;2023-02-27T13:34:30;12.60;49.30
29255;DHT22;16277;48.890;2.306;2023-02-27T13:49:43;11.70;49.00
29255;DHT22;16277;48.890;2.306;2023-02-27T14:04:50;12.80;47.70
29255;DHT22;16277;48.890;2.306;2023-02-27T14:19:56;13.80;46.30
29255;DHT22;16277;48.890;2.306;2023-02-27T14:35:03;14.90;43.50
29255;DHT22;16277;48.890;2.306;2023-02-27T14:50:22;16.40;41.50
29255;DHT22;16277;48.890;2.306;2023-02-27T15:05:30;17.30;38.60
29255;DHT22;16277;48.890;2.306;2023-02-27T15:20:37;18.00;38.60
29255;DHT22;16277;48.890;2.306;2023-02-27T15:35:43;18.50;38.10
29255;DHT22;16277;48.890;2.306;2023-02-27T15:50:52;18.60;36.80
29255;DHT22;16277;48.890;2.306;2023-02-27T16:05:56;17.60;38.90
29255;DHT22;16277;48.890;2.306;2023-02-27T16:21:12;15.90;42.60
29255;DHT22;16277;48.890;2.306;2023-02-27T16:36:18;14.50;45.60
29255;DHT22;16277;48.890;2.306;2023-02-27T16:51:25;13.80;48.30
29255;DHT22;16277;48.890;2.306;2023-02-27T17:06:30;13.20;49.20
29255;DHT22;16277;48.890;2.306;2023-02-27T17:21:34;12.90;50.10
29255;DHT22;16277;48.890;2.306;2023-02-27T17:36:39;13.00;52.70
29255;DHT22;16277;48.890;2.306;2023-02-27T17:51:43;12.70;53.70
29255;DHT22;16277;48.890;2.306;2023-02-27T18:06:48;11.80;56.00
29255;DHT22;16277;48.890;2.306;2023-02-27T18:21:52;12.10;57.00
29255;DHT22;16277;48.890;2.306;2023-02-27T18:36:57;12.30;57.10
29255;DHT22;16277;48.890;2.306;2023-02-27T18:52:01;11.80;58.90
29255;DHT22;16277;48.890;2.306;2023-02-27T19:07:06;12.00;58.60
29255;DHT22;16277;48.890;2.306;2023-02-27T19:22:10;11.60;59.60
29255;DHT22;16277;48.890;2.306;2023-02-27T19:37:15;11.70;61.10
29255;DHT22;16277;48.890;2.306;2023-02-27T19:52:19;11.20;62.10
29255;DHT22;16277;48.890;2.306;2023-02-27T20:07:24;11.20;62.80
29255;DHT22;16277;48.890;2.306;2023-02-27T20:22:31;11.40;62.90
29255;DHT22;16277;48.890;2.306;2023-02-27T20:37:35;11.10;63.80
29255;DHT22;16277;48.890;2.306;2023-02-27T20:52:41;11.30;64.10
29255;DHT22;16277;48.890;2.306;2023-02-27T21:07:45;11.10;64.40
29255;DHT22;16277;48.890;2.306;2023-02-27T21:22:50;11.10;65.40
29255;DHT22;16277;48.890;2.306;2023-02-27T21:37:57;10.80;66.00
29255;DHT22;16277;48.890;2.306;2023-02-27T21:53:02;10.90;66.40
29255;DHT22;16277;48.890;2.306;2023-02-27T22:08:06;10.70;66.90
29255;DHT22;16277;48.890;2.306;2023-02-27T22:23:11;10.60;67.70
29255;DHT22;16277;48.890;2.306;2023-02-27T22:38:16;10.40;68.80
29255;DHT22;16277;48.890;2.306;2023-02-27T22:53:20;10.40;70.00
29255;DHT22;16277;48.890;2.306;2023-02-27T23:08:25;10.40;69.90
29255;DHT22;16277;48.890;2.306;2023-02-27T23:23:29;10.20;70.50
29255;DHT22;16277;48.890;2.306;2023-02-27T23:38:34;10.30;70.80
29255;DHT22;16277;48.890;2.306;2023-02-27T23:53:40;10.10;71.50
